Braman, Oklahoma
Current Conditions -  °F | °C
As of 1:35 PM on Thursday 18 Dec 2014 (Local Time) from KBKN Reporting Station
Overcast Overcast  
Wind Chill: 34°   Ceiling: 600
Heat Index: 39°   Visibility: 9mi
Dew Point: 37°   Wind: 7mph
Humidity: 93%   Direction: 340°NNW
Pressure: 30.16"   Gusts: NA
Location:  36.92°N, 97.33°W
Report Text: KBKN 181935Z AUTO 34006KT 9SM OVC006 04/03 A3016 RMK AO2
Loading
Personal Weather Stations






























Interactive Weather Map New forecast layout! Learn more

10-Day Weather Forecast

Advertisements
Track Severe Weather on mobile